Zachow, Wisconsin
Current Conditions -  °F | °C
As of 6:55 PM on Friday 24 Oct 2014 (Local Time) from KEZS Reporting Station
Overcast Overcast  
Wind Chill: 54°   Ceiling: 6000
Heat Index: 54°   Visibility: 10mi
Dew Point: 49°   Wind: 0mph
Humidity: 85%   Direction: NA
Pressure: 29.89"   Gusts: NA
Location:  44.73°N, 88.36°W
Report Text: KEZS 242355Z AUTO 00000KT 10SM SCT046 OVC060 12/10 A2989 RMK AO2 T01200095 10136 20105
Loading
Personal Weather Stations






























Interactive Weather Map
Tropical Storm Tracking
New forecast layout! Learn more

10-Day Weather Forecast

Advertisements
Track Severe Weather on mobile